sensor_id;sensor_type;location;lat;lon;timestamp;temperature;humidity
11826;DHT22;5970;48.094;11.496;2023-02-27T02:35:17;-0.80;99.30
11826;DHT22;5970;48.094;11.496;2023-02-27T02:40:18;-0.90;99.30
11826;DHT22;5970;48.094;11.496;2023-02-27T02:42:54;-0.80;99.30
11826;DHT22;5970;48.094;11.496;2023-02-27T02:45:26;-0.90;99.40
11826;DHT22;5970;48.094;11.496;2023-02-27T02:47:58;-0.80;99.50
11826;DHT22;5970;48.094;11.496;2023-02-27T02:50:34;-0.80;99.50
11826;DHT22;5970;48.094;11.496;2023-02-27T02:53:10;-0.70;99.70
11826;DHT22;5970;48.094;11.496;2023-02-27T02:55:56;-0.60;99.50
11826;DHT22;5970;48.094;11.496;2023-02-27T03:01:00;-0.70;99.10
11826;DHT22;5970;48.094;11.496;2023-02-27T03:03:33;-0.70;99.10
11826;DHT22;5970;48.094;11.496;2023-02-27T03:06:02;-0.90;99.00
11826;DHT22;5970;48.094;11.496;2023-02-27T03:08:31;-0.80;99.10
11826;DHT22;5970;48.094;11.496;2023-02-27T03:10:58;-0.70;99.10
11826;DHT22;5970;48.094;11.496;2023-02-27T03:18:46;-0.90;99.10
11826;DHT22;5970;48.094;11.496;2023-02-27T03:21:24;-0.90;98.90
11826;DHT22;5970;48.094;11.496;2023-02-27T03:23:52;-1.10;99.00
11826;DHT22;5970;48.094;11.496;2023-02-27T03:26:22;-0.90;99.10
11826;DHT22;5970;48.094;11.496;2023-02-27T03:28:53;-0.90;98.90
11826;DHT22;5970;48.094;11.496;2023-02-27T03:31:23;-1.00;99.10
11826;DHT22;5970;48.094;11.496;2023-02-27T03:33:57;-1.00;99.10
11826;DHT22;5970;48.094;11.496;2023-02-27T03:36:38;-1.00;99.10
11826;DHT22;5970;48.094;11.496;2023-02-27T03:41:48;-0.80;99.30
11826;DHT22;5970;48.094;11.496;2023-02-27T03:46:50;-0.60;99.40
11826;DHT22;5970;48.094;11.496;2023-02-27T03:49:16;-0.60;99.10
11826;DHT22;5970;48.094;11.496;2023-02-27T03:51:43;-0.50;99.00
11826;DHT22;5970;48.094;11.496;2023-02-27T03:54:11;-0.50;98.80
11826;DHT22;5970;48.094;11.496;2023-02-27T03:56:40;-0.60;98.60
11826;DHT22;5970;48.094;11.496;2023-02-27T03:59:08;-0.70;98.90
11826;DHT22;5970;48.094;11.496;2023-02-27T04:01:35;-0.60;98.80
11826;DHT22;5970;48.094;11.496;2023-02-27T04:04:04;-0.60;98.60
11826;DHT22;5970;48.094;11.496;2023-02-27T04:06:32;-0.60;98.60
11826;DHT22;5970;48.094;11.496;2023-02-27T04:12:18;-0.60;98.50
11826;DHT22;5970;48.094;11.496;2023-02-27T04:14:51;-0.70;98.50
11826;DHT22;5970;48.094;11.496;2023-02-27T04:17:25;-0.80;98.70
11826;DHT22;5970;48.094;11.496;2023-02-27T04:20:00;-0.80;98.80
11826;DHT22;5970;48.094;11.496;2023-02-27T04:22:31;-0.80;98.90
11826;DHT22;5970;48.094;11.496;2023-02-27T04:25:45;-0.90;98.80
11826;DHT22;5970;48.094;11.496;2023-02-27T04:27:53;-0.90;98.90
11826;DHT22;5970;48.094;11.496;2023-02-27T04:35:25;-1.00;98.90
11826;DHT22;5970;48.094;11.496;2023-02-27T04:37:59;-1.00;99.00
11826;DHT22;5970;48.094;11.496;2023-02-27T04:40:32;-1.00;98.90
11826;DHT22;5970;48.094;11.496;2023-02-27T04:43:00;-0.90;98.90
11826;DHT22;5970;48.094;11.496;2023-02-27T04:45:28;-0.90;98.70
11826;DHT22;5970;48.094;11.496;2023-02-27T04:48:01;-0.90;98.80
11826;DHT22;5970;48.094;11.496;2023-02-27T04:50:32;-1.00;98.70
11826;DHT22;5970;48.094;11.496;2023-02-27T04:53:04;-1.00;98.90
11826;DHT22;5970;48.094;11.496;2023-02-27T04:55:33;-0.90;98.90
11826;DHT22;5970;48.094;11.496;2023-02-27T04:58:02;-0.90;98.70
11826;DHT22;5970;48.094;11.496;2023-02-27T05:00:30;-0.90;98.70
11826;DHT22;5970;48.094;11.496;2023-02-27T05:02:59;-0.80;98.60
11826;DHT22;5970;48.094;11.496;2023-02-27T05:05:27;-0.80;98.80
11826;DHT22;5970;48.094;11.496;2023-02-27T05:08:00;-0.90;98.50
11826;DHT22;5970;48.094;11.496;2023-02-27T05:10:39;-1.00;98.40
11826;DHT22;5970;48.094;11.496;2023-02-27T05:13:10;-1.10;98.60
11826;DHT22;5970;48.094;11.496;2023-02-27T05:15:48;-1.20;98.70
11826;DHT22;5970;48.094;11.496;2023-02-27T05:18:17;-1.00;98.70
11826;DHT22;5970;48.094;11.496;2023-02-27T05:23:41;-1.10;98.70
11826;DHT22;5970;48.094;11.496;2023-02-27T05:26:19;-1.30;98.60
11826;DHT22;5970;48.094;11.496;2023-02-27T05:31:15;-1.10;98.70
11826;DHT22;5970;48.094;11.496;2023-02-27T05:33:44;-1.20;98.60
11826;DHT22;5970;48.094;11.496;2023-02-27T05:36:15;-1.10;98.70
11826;DHT22;5970;48.094;11.496;2023-02-27T05:38:44;-1.10;98.50
11826;DHT22;5970;48.094;11.496;2023-02-27T05:41:17;-1.10;98.50
11826;DHT22;5970;48.094;11.496;2023-02-27T05:43:46;-1.20;98.60
11826;DHT22;5970;48.094;11.496;2023-02-27T05:46:15;-1.20;98.70
11826;DHT22;5970;48.094;11.496;2023-02-27T05:48:46;-1.20;99.90
11826;DHT22;5970;48.094;11.496;2023-02-27T05:51:13;-1.20;99.90
11826;DHT22;5970;48.094;11.496;2023-02-27T05:53:43;-1.10;99.90
11826;DHT22;5970;48.094;11.496;2023-02-27T05:56:11;-1.00;99.90
11826;DHT22;5970;48.094;11.496;2023-02-27T05:58:56;-1.00;99.90
11826;DHT22;5970;48.094;11.496;2023-02-27T06:01:24;-1.30;99.90
11826;DHT22;5970;48.094;11.496;2023-02-27T06:03:51;-1.10;99.90
11826;DHT22;5970;48.094;11.496;2023-02-27T06:06:19;-1.10;99.90
11826;DHT22;5970;48.094;11.496;2023-02-27T06:08:45;-1.20;99.90
11826;DHT22;5970;48.094;11.496;2023-02-27T06:11:12;-1.20;98.40
11826;DHT22;5970;48.094;11.496;2023-02-27T06:13:39;-1.20;98.30
11826;DHT22;5970;48.094;11.496;2023-02-27T06:16:11;-1.20;98.50
11826;DHT22;5970;48.094;11.496;2023-02-27T06:18:38;-1.10;99.90
11826;DHT22;5970;48.094;11.496;2023-02-27T06:21:05;-1.20;99.90
11826;DHT22;5970;48.094;11.496;2023-02-27T06:23:32;-1.10;99.90
11826;DHT22;5970;48.094;11.496;2023-02-27T06:25:58;-1.20;99.90
11826;DHT22;5970;48.094;11.496;2023-02-27T06:28:25;-1.10;99.90
11826;DHT22;5970;48.094;11.496;2023-02-27T06:30:55;-1.10;99.90
11826;DHT22;5970;48.094;11.496;2023-02-27T06:33:23;-1.10;99.90
11826;DHT22;5970;48.094;11.496;2023-02-27T06:35:51;-1.00;99.90
11826;DHT22;5970;48.094;11.496;2023-02-27T06:38:18;-1.10;99.90
11826;DHT22;5970;48.094;11.496;2023-02-27T06:40:44;-0.90;99.90
11826;DHT22;5970;48.094;11.496;2023-02-27T06:43:11;-1.00;99.90
11826;DHT22;5970;48.094;11.496;2023-02-27T06:45:37;-0.90;99.90
11826;DHT22;5970;48.094;11.496;2023-02-27T06:48:04;-0.80;99.90
11826;DHT22;5970;48.094;11.496;2023-02-27T06:50:31;-0.90;99.90
11826;DHT22;5970;48.094;11.496;2023-02-27T06:52:57;-0.90;99.90
11826;DHT22;5970;48.094;11.496;2023-02-27T06:55:24;-0.80;99.90
11826;DHT22;5970;48.094;11.496;2023-02-27T06:57:51;-0.90;99.90
11826;DHT22;5970;48.094;11.496;2023-02-27T07:00:17;-0.80;99.90
11826;DHT22;5970;48.094;11.496;2023-02-27T07:02:44;-0.70;99.90
11826;DHT22;5970;48.094;11.496;2023-02-27T07:05:11;-0.60;99.90
11826;DHT22;5970;48.094;11.496;2023-02-27T07:07:37;-0.60;99.90
11826;DHT22;5970;48.094;11.496;2023-02-27T07:10:06;-0.40;99.90
11826;DHT22;5970;48.094;11.496;2023-02-27T07:12:33;-0.40;99.90
11826;DHT22;5970;48.094;11.496;2023-02-27T07:14:59;-0.40;99.90
11826;DHT22;5970;48.094;11.496;2023-02-27T07:17:26;-0.20;99.90
11826;DHT22;5970;48.094;11.496;2023-02-27T07:19:53;-0.30;99.90
11826;DHT22;5970;48.094;11.496;2023-02-27T07:22:20;-0.30;99.90
11826;DHT22;5970;48.094;11.496;2023-02-27T07:24:46;-0.20;99.90
11826;DHT22;5970;48.094;11.496;2023-02-27T07:27:13;-0.30;99.90
11826;DHT22;5970;48.094;11.496;2023-02-27T07:29:39;-0.20;99.90
11826;DHT22;5970;48.094;11.496;2023-02-27T07:32:06;-0.20;99.90
11826;DHT22;5970;48.094;11.496;2023-02-27T07:34:33;-0.20;99.90
11826;DHT22;5970;48.094;11.496;2023-02-27T07:37:00;-0.30;99.90
11826;DHT22;5970;48.094;11.496;2023-02-27T07:39:26;0.00;99.90
11826;DHT22;5970;48.094;11.496;2023-02-27T07:41:53;-0.10;99.90
11826;DHT22;5970;48.094;11.496;2023-02-27T07:44:19;-0.10;99.90
11826;DHT22;5970;48.094;11.496;2023-02-27T07:46:46;-0.30;99.90
11826;DHT22;5970;48.094;11.496;2023-02-27T07:49:13;0.00;99.90
11826;DHT22;5970;48.094;11.496;2023-02-27T07:51:39;0.00;99.90
11826;DHT22;5970;48.094;11.496;2023-02-27T07:54:09;0.10;99.90
11826;DHT22;5970;48.094;11.496;2023-02-27T07:56:35;0.20;99.90
11826;DHT22;5970;48.094;11.496;2023-02-27T07:59:02;0.50;99.90
11826;DHT22;5970;48.094;11.496;2023-02-27T08:01:28;0.50;99.90
11826;DHT22;5970;48.094;11.496;2023-02-27T08:03:55;0.30;99.90
11826;DHT22;5970;48.094;11.496;2023-02-27T08:06:22;0.40;99.90
11826;DHT22;5970;48.094;11.496;2023-02-27T08:08:49;0.30;99.90
11826;DHT22;5970;48.094;11.496;2023-02-27T08:11:16;0.30;99.90
11826;DHT22;5970;48.094;11.496;2023-02-27T08:13:43;0.50;99.90
11826;DHT22;5970;48.094;11.496;2023-02-27T08:16:26;-0.50;99.90
11826;DHT22;5970;48.094;11.496;2023-02-27T08:18:53;0.30;99.90
11826;DHT22;5970;48.094;11.496;2023-02-27T08:21:20;0.30;99.90
11826;DHT22;5970;48.094;11.496;2023-02-27T08:23:46;0.30;99.90
11826;DHT22;5970;48.094;11.496;2023-02-27T08:26:13;0.40;99.90
11826;DHT22;5970;48.094;11.496;2023-02-27T08:28:40;0.40;99.90
11826;DHT22;5970;48.094;11.496;2023-02-27T08:31:07;0.60;99.90
11826;DHT22;5970;48.094;11.496;2023-02-27T08:33:33;0.50;99.90
11826;DHT22;5970;48.094;11.496;2023-02-27T08:36:00;0.60;99.90
11826;DHT22;5970;48.094;11.496;2023-02-27T08:38:27;0.70;99.90
11826;DHT22;5970;48.094;11.496;2023-02-27T08:40:54;0.50;99.90
11826;DHT22;5970;48.094;11.496;2023-02-27T08:43:21;0.30;99.90
11826;DHT22;5970;48.094;11.496;2023-02-27T08:45:48;0.40;99.90
11826;DHT22;5970;48.094;11.496;2023-02-27T08:48:15;0.30;99.90
11826;DHT22;5970;48.094;11.496;2023-02-27T08:50:43;0.40;99.90
11826;DHT22;5970;48.094;11.496;2023-02-27T08:53:10;0.40;99.90
11826;DHT22;5970;48.094;11.496;2023-02-27T08:55:37;0.40;99.90
11826;DHT22;5970;48.094;11.496;2023-02-27T08:58:03;0.50;99.90
11826;DHT22;5970;48.094;11.496;2023-02-27T09:00:30;0.40;99.90
11826;DHT22;5970;48.094;11.496;2023-02-27T09:02:57;0.60;99.90
11826;DHT22;5970;48.094;11.496;2023-02-27T09:05:25;0.70;99.90
11826;DHT22;5970;48.094;11.496;2023-02-27T09:07:52;0.70;99.90
11826;DHT22;5970;48.094;11.496;2023-02-27T09:10:18;0.80;99.90
11826;DHT22;5970;48.094;11.496;2023-02-27T09:12:45;0.80;99.90
11826;DHT22;5970;48.094;11.496;2023-02-27T09:15:11;0.70;99.90
11826;DHT22;5970;48.094;11.496;2023-02-27T09:17:38;0.60;99.90
11826;DHT22;5970;48.094;11.496;2023-02-27T09:20:05;0.80;99.90
11826;DHT22;5970;48.094;11.496;2023-02-27T09:22:34;1.10;99.90
11826;DHT22;5970;48.094;11.496;2023-02-27T09:25:01;1.00;99.90
11826;DHT22;5970;48.094;11.496;2023-02-27T09:27:27;1.30;99.90
11826;DHT22;5970;48.094;11.496;2023-02-27T09:29:54;1.20;99.30
11826;DHT22;5970;48.094;11.496;2023-02-27T09:32:22;1.10;99.70
11826;DHT22;5970;48.094;11.496;2023-02-27T09:34:48;1.30;99.30
11826;DHT22;5970;48.094;11.496;2023-02-27T09:37:16;1.20;99.90
11826;DHT22;5970;48.094;11.496;2023-02-27T09:39:42;0.90;99.90
11826;DHT22;5970;48.094;11.496;2023-02-27T09:42:18;1.10;99.90
11826;DHT22;5970;48.094;11.496;2023-02-27T09:47:17;1.00;99.90
11826;DHT22;5970;48.094;11.496;2023-02-27T09:52:21;0.80;99.90
11826;DHT22;5970;48.094;11.496;2023-02-27T09:54:48;0.70;99.90
11826;DHT22;5970;48.094;11.496;2023-02-27T09:57:17;0.70;99.90
11826;DHT22;5970;48.094;11.496;2023-02-27T09:59:53;0.80;99.90
11826;DHT22;5970;48.094;11.496;2023-02-27T10:05:02;1.10;99.90
11826;DHT22;5970;48.094;11.496;2023-02-27T10:07:40;1.40;99.90
11826;DHT22;5970;48.094;11.496;2023-02-27T10:10:19;1.90;99.90
11826;DHT22;5970;48.094;11.496;2023-02-27T10:15:29;1.60;99.90
11826;DHT22;5970;48.094;11.496;2023-02-27T10:20:57;2.00;98.70
11826;DHT22;5970;48.094;11.496;2023-02-27T10:23:32;1.90;98.20
11826;DHT22;5970;48.094;11.496;2023-02-27T10:26:01;1.90;98.40
11826;DHT22;5970;48.094;11.496;2023-02-27T10:28:31;1.90;98.40
11826;DHT22;5970;48.094;11.496;2023-02-27T10:30:58;1.90;99.10
11826;DHT22;5970;48.094;11.496;2023-02-27T10:35:55;1.90;97.90
11826;DHT22;5970;48.094;11.496;2023-02-27T10:38:33;2.00;97.80
11826;DHT22;5970;48.094;11.496;2023-02-27T10:41:02;2.00;97.20
11826;DHT22;5970;48.094;11.496;2023-02-27T10:43:29;2.30;98.30
11826;DHT22;5970;48.094;11.496;2023-02-27T10:45:59;2.20;96.90
11826;DHT22;5970;48.094;11.496;2023-02-27T10:48:26;2.40;97.30
11826;DHT22;5970;48.094;11.496;2023-02-27T10:50:53;2.40;96.00
11826;DHT22;5970;48.094;11.496;2023-02-27T10:53:39;2.10;96.10
11826;DHT22;5970;48.094;11.496;2023-02-27T10:56:06;1.80;96.20
11826;DHT22;5970;48.094;11.496;2023-02-27T10:58:34;1.90;96.60
11826;DHT22;5970;48.094;11.496;2023-02-27T11:01:02;1.90;97.00
11826;DHT22;5970;48.094;11.496;2023-02-27T11:03:33;1.90;97.40
11826;DHT22;5970;48.094;11.496;2023-02-27T11:06:03;2.10;96.80
11826;DHT22;5970;48.094;11.496;2023-02-27T11:08:32;2.00;96.50
11826;DHT22;5970;48.094;11.496;2023-02-27T11:11:00;1.80;95.00
11826;DHT22;5970;48.094;11.496;2023-02-27T11:13:28;1.70;94.70
11826;DHT22;5970;48.094;11.496;2023-02-27T11:16:06;1.80;94.90
11826;DHT22;5970;48.094;11.496;2023-02-27T11:18:34;1.90;93.40
11826;DHT22;5970;48.094;11.496;2023-02-27T11:23:34;1.70;93.80
11826;DHT22;5970;48.094;11.496;2023-02-27T11:26:14;1.80;94.20
11826;DHT22;5970;48.094;11.496;2023-02-27T11:28:41;1.70;94.60
11826;DHT22;5970;48.094;11.496;2023-02-27T11:31:15;1.60;94.70
11826;DHT22;5970;48.094;11.496;2023-02-27T11:33:48;1.50;94.90
11826;DHT22;5970;48.094;11.496;2023-02-27T11:36:15;1.50;94.10
11826;DHT22;5970;48.094;11.496;2023-02-27T11:38:49;1.40;95.30
11826;DHT22;5970;48.094;11.496;2023-02-27T11:41:18;1.60;95.00
11826;DHT22;5970;48.094;11.496;2023-02-27T11:43:48;1.60;94.90
11826;DHT22;5970;48.094;11.496;2023-02-27T11:46:19;1.70;94.30
11826;DHT22;5970;48.094;11.496;2023-02-27T11:52:11;1.60;94.40
11826;DHT22;5970;48.094;11.496;2023-02-27T11:59:38;1.60;93.50
11826;DHT22;5970;48.094;11.496;2023-02-27T12:07:05;1.50;94.00
11826;DHT22;5970;48.094;11.496;2023-02-27T12:09:39;1.70;93.80
11826;DHT22;5970;48.094;11.496;2023-02-27T12:14:58;1.50;93.80
11826;DHT22;5970;48.094;11.496;2023-02-27T12:17:28;1.60;94.20
11826;DHT22;5970;48.094;11.496;2023-02-27T12:19:59;1.80;95.20
11826;DHT22;5970;48.094;11.496;2023-02-27T12:22:28;2.00;95.00
11826;DHT22;5970;48.094;11.496;2023-02-27T12:24:57;1.70;95.50
11826;DHT22;5970;48.094;11.496;2023-02-27T12:27:40;1.60;95.20
11826;DHT22;5970;48.094;11.496;2023-02-27T12:30:13;1.50;94.80
11826;DHT22;5970;48.094;11.496;2023-02-27T12:32:53;1.60;95.20
11826;DHT22;5970;48.094;11.496;2023-02-27T12:35:23;1.60;95.00
11826;DHT22;5970;48.094;11.496;2023-02-27T12:37:51;1.20;95.60
11826;DHT22;5970;48.094;11.496;2023-02-27T12:40:19;1.60;95.00
11826;DHT22;5970;48.094;11.496;2023-02-27T12:48:54;1.50;94.40
11826;DHT22;5970;48.094;11.496;2023-02-27T12:54:01;1.90;95.60
11826;DHT22;5970;48.094;11.496;2023-02-27T12:56:33;1.90;94.90
11826;DHT22;5970;48.094;11.496;2023-02-27T12:59:08;2.10;94.60
11826;DHT22;5970;48.094;11.496;2023-02-27T13:01:47;2.20;94.40
11826;DHT22;5970;48.094;11.496;2023-02-27T13:04:20;2.50;93.90
11826;DHT22;5970;48.094;11.496;2023-02-27T13:06:51;2.30;94.00
11826;DHT22;5970;48.094;11.496;2023-02-27T13:12:00;1.90;94.30
11826;DHT22;5970;48.094;11.496;2023-02-27T13:17:09;1.70;94.30
11826;DHT22;5970;48.094;11.496;2023-02-27T13:19:42;1.80;95.00
11826;DHT22;5970;48.094;11.496;2023-02-27T13:22:19;1.90;94.40
11826;DHT22;5970;48.094;11.496;2023-02-27T13:24:49;1.90;94.50
11826;DHT22;5970;48.094;11.496;2023-02-27T13:27:18;1.80;95.10
11826;DHT22;5970;48.094;11.496;2023-02-27T13:30:03;1.90;95.50
11826;DHT22;5970;48.094;11.496;2023-02-27T13:32:38;2.20;95.20
11826;DHT22;5970;48.094;11.496;2023-02-27T13:40:26;2.30;95.10
11826;DHT22;5970;48.094;11.496;2023-02-27T13:42:58;2.50;94.70
11826;DHT22;5970;48.094;11.496;2023-02-27T13:45:45;1.80;94.90
11826;DHT22;5970;48.094;11.496;2023-02-27T13:50:58;2.10;95.40
11826;DHT22;5970;48.094;11.496;2023-02-27T13:53:24;2.10;95.80
11826;DHT22;5970;48.094;11.496;2023-02-27T13:55:51;2.60;95.20
11826;DHT22;5970;48.094;11.496;2023-02-27T13:58:21;2.60;95.50
11826;DHT22;5970;48.094;11.496;2023-02-27T14:00:53;2.70;95.80
11826;DHT22;5970;48.094;11.496;2023-02-27T14:03:21;3.00;95.60
11826;DHT22;5970;48.094;11.496;2023-02-27T14:05:51;2.80;94.90
11826;DHT22;5970;48.094;11.496;2023-02-27T14:08:23;2.60;94.70
11826;DHT22;5970;48.094;11.496;2023-02-27T14:10:54;2.40;95.30
11826;DHT22;5970;48.094;11.496;2023-02-27T14:16:07;2.30;95.00
11826;DHT22;5970;48.094;11.496;2023-02-27T14:18:50;2.30;95.80
11826;DHT22;5970;48.094;11.496;2023-02-27T14:21:48;2.30;95.50
11826;DHT22;5970;48.094;11.496;2023-02-27T14:24:15;2.50;96.20
11826;DHT22;5970;48.094;11.496;2023-02-27T14:26:42;2.50;95.90
11826;DHT22;5970;48.094;11.496;2023-02-27T14:29:16;2.60;95.80
11826;DHT22;5970;48.094;11.496;2023-02-27T14:34:12;2.40;85.20
11826;DHT22;5970;48.094;11.496;2023-02-27T14:36:44;2.20;85.90
11826;DHT22;5970;48.094;11.496;2023-02-27T14:39:17;2.40;85.10
11826;DHT22;5970;48.094;11.496;2023-02-27T14:41:46;2.40;85.10
11826;DHT22;5970;48.094;11.496;2023-02-27T14:46:43;2.20;86.60
11826;DHT22;5970;48.094;11.496;2023-02-27T14:49:18;2.20;88.10
11826;DHT22;5970;48.094;11.496;2023-02-27T14:51:45;2.20;87.20
11826;DHT22;5970;48.094;11.496;2023-02-27T14:56:38;2.20;86.50
11826;DHT22;5970;48.094;11.496;2023-02-27T14:59:25;2.20;87.00
11826;DHT22;5970;48.094;11.496;2023-02-27T15:01:52;2.30;87.50
11826;DHT22;5970;48.094;11.496;2023-02-27T15:04:21;2.20;87.80
11826;DHT22;5970;48.094;11.496;2023-02-27T15:06:49;2.00;89.00
11826;DHT22;5970;48.094;11.496;2023-02-27T15:09:23;1.80;88.60
11826;DHT22;5970;48.094;11.496;2023-02-27T15:11:51;1.70;88.10
11826;DHT22;5970;48.094;11.496;2023-02-27T15:14:30;1.60;87.70
11826;DHT22;5970;48.094;11.496;2023-02-27T15:16:58;1.60;87.80
11826;DHT22;5970;48.094;11.496;2023-02-27T15:19:26;1.60;87.50
11826;DHT22;5970;48.094;11.496;2023-02-27T15:21:59;1.70;88.40
11826;DHT22;5970;48.094;11.496;2023-02-27T15:24:34;1.60;87.50
11826;DHT22;5970;48.094;11.496;2023-02-27T15:27:16;1.60;87.70
11826;DHT22;5970;48.094;11.496;2023-02-27T15:29:47;1.40;87.20
11826;DHT22;5970;48.094;11.496;2023-02-27T15:32:24;1.60;88.00
11826;DHT22;5970;48.094;11.496;2023-02-27T15:34:51;1.60;87.70
11826;DHT22;5970;48.094;11.496;2023-02-27T15:37:20;1.40;87.70
11826;DHT22;5970;48.094;11.496;2023-02-27T15:39:48;1.20;87.80
11826;DHT22;5970;48.094;11.496;2023-02-27T15:42:15;1.10;88.50
11826;DHT22;5970;48.094;11.496;2023-02-27T15:44:43;1.10;89.00
11826;DHT22;5970;48.094;11.496;2023-02-27T15:47:26;1.30;89.20
11826;DHT22;5970;48.094;11.496;2023-02-27T15:50:00;1.10;89.70
11826;DHT22;5970;48.094;11.496;2023-02-27T15:52:37;1.20;89.30
11826;DHT22;5970;48.094;11.496;2023-02-27T15:55:08;1.00;89.20
11826;DHT22;5970;48.094;11.496;2023-02-27T15:57:35;1.20;89.70
11826;DHT22;5970;48.094;11.496;2023-02-27T16:00:02;1.10;90.00
11826;DHT22;5970;48.094;11.496;2023-02-27T16:02:44;1.20;90.00
11826;DHT22;5970;48.094;11.496;2023-02-27T16:05:18;1.00;89.40
11826;DHT22;5970;48.094;11.496;2023-02-27T16:07:45;0.90;89.90
11826;DHT22;5970;48.094;11.496;2023-02-27T16:10:15;0.90;90.30
11826;DHT22;5970;48.094;11.496;2023-02-27T16:12:43;0.70;90.00
11826;DHT22;5970;48.094;11.496;2023-02-27T16:15:15;0.50;90.20
11826;DHT22;5970;48.094;11.496;2023-02-27T16:17:53;0.50;90.50
11826;DHT22;5970;48.094;11.496;2023-02-27T16:25:32;0.40;90.10
11826;DHT22;5970;48.094;11.496;2023-02-27T16:27:58;0.40;90.00
11826;DHT22;5970;48.094;11.496;2023-02-27T16:30:25;0.30;89.70
11826;DHT22;5970;48.094;11.496;2023-02-27T16:32:59;0.40;90.00
11826;DHT22;5970;48.094;11.496;2023-02-27T16:35:26;0.40;90.00
11826;DHT22;5970;48.094;11.496;2023-02-27T16:37:58;0.40;89.80
11826;DHT22;5970;48.094;11.496;2023-02-27T16:40:25;0.40;89.40
11826;DHT22;5970;48.094;11.496;2023-02-27T16:42:52;0.50;90.10
11826;DHT22;5970;48.094;11.496;2023-02-27T16:45:23;0.50;88.80
11826;DHT22;5970;48.094;11.496;2023-02-27T16:47:57;0.40;89.00
11826;DHT22;5970;48.094;11.496;2023-02-27T16:50:38;0.30;89.30
11826;DHT22;5970;48.094;11.496;2023-02-27T16:53:06;0.40;89.20
11826;DHT22;5970;48.094;11.496;2023-02-27T16:55:33;0.30;89.10
11826;DHT22;5970;48.094;11.496;2023-02-27T16:58:00;0.20;88.90
11826;DHT22;5970;48.094;11.496;2023-02-27T17:00:27;0.20;89.70
11826;DHT22;5970;48.094;11.496;2023-02-27T17:02:53;0.20;89.60
11826;DHT22;5970;48.094;11.496;2023-02-27T17:05:20;0.30;89.80
11826;DHT22;5970;48.094;11.496;2023-02-27T17:07:48;0.40;89.60
11826;DHT22;5970;48.094;11.496;2023-02-27T17:10:15;0.40;89.80
11826;DHT22;5970;48.094;11.496;2023-02-27T17:12:42;0.30;89.30
11826;DHT22;5970;48.094;11.496;2023-02-27T17:15:09;0.30;89.60
11826;DHT22;5970;48.094;11.496;2023-02-27T17:17:36;0.30;89.30
11826;DHT22;5970;48.094;11.496;2023-02-27T17:20:02;0.20;89.30
11826;DHT22;5970;48.094;11.496;2023-02-27T17:22:36;0.20;90.40
11826;DHT22;5970;48.094;11.496;2023-02-27T17:25:02;0.20;89.90
11826;DHT22;5970;48.094;11.496;2023-02-27T17:27:29;0.10;90.00
11826;DHT22;5970;48.094;11.496;2023-02-27T17:29:56;0.10;90.30
11826;DHT22;5970;48.094;11.496;2023-02-27T17:32:22;-0.10;90.60
11826;DHT22;5970;48.094;11.496;2023-02-27T17:34:52;0.10;91.00
11826;DHT22;5970;48.094;11.496;2023-02-27T17:37:19;0.20;90.90
11826;DHT22;5970;48.094;11.496;2023-02-27T17:39:46;0.20;91.10
11826;DHT22;5970;48.094;11.496;2023-02-27T17:42:12;0.20;91.10
11826;DHT22;5970;48.094;11.496;2023-02-27T17:44:44;0.20;91.10
11826;DHT22;5970;48.094;11.496;2023-02-27T17:47:11;-0.10;93.20
11826;DHT22;5970;48.094;11.496;2023-02-27T17:49:38;-0.10;91.20
11826;DHT22;5970;48.094;11.496;2023-02-27T17:52:04;-0.30;91.20
11826;DHT22;5970;48.094;11.496;2023-02-27T17:54:33;-0.20;91.60
11826;DHT22;5970;48.094;11.496;2023-02-27T17:56:59;-0.20;91.70
11826;DHT22;5970;48.094;11.496;2023-02-27T17:59:26;-0.20;91.60
11826;DHT22;5970;48.094;11.496;2023-02-27T18:01:53;-0.20;92.30
11826;DHT22;5970;48.094;11.496;2023-02-27T18:04:21;-0.10;92.80
11826;DHT22;5970;48.094;11.496;2023-02-27T18:06:47;0.00;92.00
11826;DHT22;5970;48.094;11.496;2023-02-27T18:09:16;-0.10;92.00
11826;DHT22;5970;48.094;11.496;2023-02-27T18:11:42;-0.20;91.90
11826;DHT22;5970;48.094;11.496;2023-02-27T18:14:09;-0.30;92.10
11826;DHT22;5970;48.094;11.496;2023-02-27T18:16:35;-0.30;92.20
11826;DHT22;5970;48.094;11.496;2023-02-27T18:19:03;-0.40;92.40
11826;DHT22;5970;48.094;11.496;2023-02-27T18:21:30;-0.20;92.60
11826;DHT22;5970;48.094;11.496;2023-02-27T18:23:57;-0.20;92.60
11826;DHT22;5970;48.094;11.496;2023-02-27T18:26:25;-0.20;92.80
11826;DHT22;5970;48.094;11.496;2023-02-27T18:28:56;0.00;92.80
11826;DHT22;5970;48.094;11.496;2023-02-27T18:31:26;-0.10;92.70
11826;DHT22;5970;48.094;11.496;2023-02-27T18:33:53;-0.10;92.60
11826;DHT22;5970;48.094;11.496;2023-02-27T18:36:20;-0.20;92.50
11826;DHT22;5970;48.094;11.496;2023-02-27T18:38:46;-0.20;92.80
11826;DHT22;5970;48.094;11.496;2023-02-27T18:41:13;-0.20;92.70
11826;DHT22;5970;48.094;11.496;2023-02-27T18:43:40;-0.20;93.20
11826;DHT22;5970;48.094;11.496;2023-02-27T18:46:07;-0.30;93.50
11826;DHT22;5970;48.094;11.496;2023-02-27T18:48:34;-0.30;93.70
11826;DHT22;5970;48.094;11.496;2023-02-27T18:51:05;-0.30;93.80
11826;DHT22;5970;48.094;11.496;2023-02-27T18:53:34;-0.40;94.20
11826;DHT22;5970;48.094;11.496;2023-02-27T18:56:01;-0.40;94.70
11826;DHT22;5970;48.094;11.496;2023-02-27T18:58:28;-0.50;94.50
11826;DHT22;5970;48.094;11.496;2023-02-27T19:00:54;-0.50;94.90
11826;DHT22;5970;48.094;11.496;2023-02-27T19:03:21;-0.60;95.00
11826;DHT22;5970;48.094;11.496;2023-02-27T19:05:48;-0.60;95.30
11826;DHT22;5970;48.094;11.496;2023-02-27T19:08:16;-0.70;95.60
11826;DHT22;5970;48.094;11.496;2023-02-27T19:10:43;-0.60;95.70
11826;DHT22;5970;48.094;11.496;2023-02-27T19:13:09;-0.50;95.90
11826;DHT22;5970;48.094;11.496;2023-02-27T19:15:37;-0.60;95.90
11826;DHT22;5970;48.094;11.496;2023-02-27T19:18:04;-0.60;96.20
11826;DHT22;5970;48.094;11.496;2023-02-27T19:20:32;-0.60;96.40
11826;DHT22;5970;48.094;11.496;2023-02-27T19:23:00;-0.60;96.60
11826;DHT22;5970;48.094;11.496;2023-02-27T19:25:26;-0.60;96.80
11826;DHT22;5970;48.094;11.496;2023-02-27T19:27:54;-0.60;96.70
11826;DHT22;5970;48.094;11.496;2023-02-27T19:30:21;-0.60;96.60
11826;DHT22;5970;48.094;11.496;2023-02-27T19:32:48;-0.70;96.40
11826;DHT22;5970;48.094;11.496;2023-02-27T19:35:15;-0.90;96.80
11826;DHT22;5970;48.094;11.496;2023-02-27T19:37:41;-1.00;96.70
11826;DHT22;5970;48.094;11.496;2023-02-27T19:40:09;-1.00;96.80
11826;DHT22;5970;48.094;11.496;2023-02-27T19:42:35;-1.00;96.90
11826;DHT22;5970;48.094;11.496;2023-02-27T19:45:02;-1.00;96.90
11826;DHT22;5970;48.094;11.496;2023-02-27T19:47:29;-1.10;97.00
11826;DHT22;5970;48.094;11.496;2023-02-27T19:49:55;-1.10;96.90
11826;DHT22;5970;48.094;11.496;2023-02-27T19:52:22;-1.10;97.10
11826;DHT22;5970;48.094;11.496;2023-02-27T19:54:49;-1.00;97.20
11826;DHT22;5970;48.094;11.496;2023-02-27T19:57:15;-1.00;97.20
11826;DHT22;5970;48.094;11.496;2023-02-27T19:59:43;-1.00;97.00
11826;DHT22;5970;48.094;11.496;2023-02-27T20:02:10;-1.00;97.20
11826;DHT22;5970;48.094;11.496;2023-02-27T20:04:37;-1.10;97.00
11826;DHT22;5970;48.094;11.496;2023-02-27T20:07:03;-1.00;97.40
11826;DHT22;5970;48.094;11.496;2023-02-27T20:09:30;-1.00;97.10